sensor_id;sensor_type;location;lat;lon;timestamp;temperature;humidity
24152;DHT22;12311;50.866;4.332;2022-08-24T00:02:05;22.00;99.90
24152;DHT22;12311;50.866;4.332;2022-08-24T00:04:31;22.00;99.90
24152;DHT22;12311;50.866;4.332;2022-08-24T00:06:58;22.00;99.90
24152;DHT22;12311;50.866;4.332;2022-08-24T00:09:24;22.00;99.90
24152;DHT22;12311;50.866;4.332;2022-08-24T00:11:49;22.00;99.90
24152;DHT22;12311;50.866;4.332;2022-08-24T00:14:15;21.90;99.90
24152;DHT22;12311;50.866;4.332;2022-08-24T00:16:41;21.90;99.90
24152;DHT22;12311;50.866;4.332;2022-08-24T00:19:07;21.90;99.90
24152;DHT22;12311;50.866;4.332;2022-08-24T00:21:32;21.90;99.90
24152;DHT22;12311;50.866;4.332;2022-08-24T00:23:58;21.90;99.90
24152;DHT22;12311;50.866;4.332;2022-08-24T00:26:24;21.90;99.90
24152;DHT22;12311;50.866;4.332;2022-08-24T00:28:49;21.90;99.90
24152;DHT22;12311;50.866;4.332;2022-08-24T00:31:15;21.90;99.90
24152;DHT22;12311;50.866;4.332;2022-08-24T00:33:42;21.90;99.90
24152;DHT22;12311;50.866;4.332;2022-08-24T00:36:08;21.90;99.90
24152;DHT22;12311;50.866;4.332;2022-08-24T00:38:34;22.00;99.90
24152;DHT22;12311;50.866;4.332;2022-08-24T00:41:00;22.00;99.90
24152;DHT22;12311;50.866;4.332;2022-08-24T00:43:27;22.00;99.90
24152;DHT22;12311;50.866;4.332;2022-08-24T00:46:17;21.90;99.90
24152;DHT22;12311;50.866;4.332;2022-08-24T00:48:47;21.90;99.90
24152;DHT22;12311;50.866;4.332;2022-08-24T00:51:19;21.80;99.90
24152;DHT22;12311;50.866;4.332;2022-08-24T00:53:51;21.80;99.90
24152;DHT22;12311;50.866;4.332;2022-08-24T00:56:22;21.70;99.90
24152;DHT22;12311;50.866;4.332;2022-08-24T00:58:59;21.70;99.90
24152;DHT22;12311;50.866;4.332;2022-08-24T01:01:27;21.70;99.90
24152;DHT22;12311;50.866;4.332;2022-08-24T01:03:54;21.70;99.90
24152;DHT22;12311;50.866;4.332;2022-08-24T01:06:21;21.70;99.90
24152;DHT22;12311;50.866;4.332;2022-08-24T01:08:47;21.60;99.90
24152;DHT22;12311;50.866;4.332;2022-08-24T01:11:18;21.70;99.90
24152;DHT22;12311;50.866;4.332;2022-08-24T01:13:47;21.70;99.90
24152;DHT22;12311;50.866;4.332;2022-08-24T01:16:15;21.60;99.90
24152;DHT22;12311;50.866;4.332;2022-08-24T01:19:01;21.70;99.90
24152;DHT22;12311;50.866;4.332;2022-08-24T01:21:36;21.60;99.90
24152;DHT22;12311;50.866;4.332;2022-08-24T01:24:05;21.60;99.90
24152;DHT22;12311;50.866;4.332;2022-08-24T01:26:37;21.60;99.90
24152;DHT22;12311;50.866;4.332;2022-08-24T01:29:10;21.60;99.90
24152;DHT22;12311;50.866;4.332;2022-08-24T01:31:36;21.70;99.90
24152;DHT22;12311;50.866;4.332;2022-08-24T01:34:02;21.70;99.90
24152;DHT22;12311;50.866;4.332;2022-08-24T01:36:30;21.70;99.90
24152;DHT22;12311;50.866;4.332;2022-08-24T01:39:00;21.60;99.90
24152;DHT22;12311;50.866;4.332;2022-08-24T01:41:27;21.60;99.90
24152;DHT22;12311;50.866;4.332;2022-08-24T01:43:52;21.50;99.90
24152;DHT22;12311;50.866;4.332;2022-08-24T01:46:18;21.50;99.90
24152;DHT22;12311;50.866;4.332;2022-08-24T01:48:43;21.50;99.90
24152;DHT22;12311;50.866;4.332;2022-08-24T01:51:09;21.50;99.90
24152;DHT22;12311;50.866;4.332;2022-08-24T01:53:35;21.40;99.90
24152;DHT22;12311;50.866;4.332;2022-08-24T01:56:01;21.50;99.90
24152;DHT22;12311;50.866;4.332;2022-08-24T01:58:27;21.50;99.90
24152;DHT22;12311;50.866;4.332;2022-08-24T02:00:53;21.50;99.90
24152;DHT22;12311;50.866;4.332;2022-08-24T02:03:19;21.50;99.90
24152;DHT22;12311;50.866;4.332;2022-08-24T02:05:46;21.40;99.90
24152;DHT22;12311;50.866;4.332;2022-08-24T02:08:12;21.40;99.90
24152;DHT22;12311;50.866;4.332;2022-08-24T02:10:39;21.30;99.90
24152;DHT22;12311;50.866;4.332;2022-08-24T02:13:04;21.30;99.90
24152;DHT22;12311;50.866;4.332;2022-08-24T02:15:34;21.30;99.90
24152;DHT22;12311;50.866;4.332;2022-08-24T02:18:05;21.20;99.90
24152;DHT22;12311;50.866;4.332;2022-08-24T02:20:31;21.20;99.90
24152;DHT22;12311;50.866;4.332;2022-08-24T02:22:57;21.20;99.90
24152;DHT22;12311;50.866;4.332;2022-08-24T02:25:24;21.20;99.90
24152;DHT22;12311;50.866;4.332;2022-08-24T02:27:50;21.20;99.90
24152;DHT22;12311;50.866;4.332;2022-08-24T02:30:16;21.20;99.90
24152;DHT22;12311;50.866;4.332;2022-08-24T02:32:42;21.20;99.90
24152;DHT22;12311;50.866;4.332;2022-08-24T02:35:08;21.30;99.90
24152;DHT22;12311;50.866;4.332;2022-08-24T02:37:34;21.30;99.90
24152;DHT22;12311;50.866;4.332;2022-08-24T02:40:00;21.20;99.90
24152;DHT22;12311;50.866;4.332;2022-08-24T02:42:26;21.30;99.90
24152;DHT22;12311;50.866;4.332;2022-08-24T02:44:51;21.20;99.90
24152;DHT22;12311;50.866;4.332;2022-08-24T02:47:17;21.20;99.90
24152;DHT22;12311;50.866;4.332;2022-08-24T02:49:43;21.20;99.90
24152;DHT22;12311;50.866;4.332;2022-08-24T02:52:09;21.10;99.90
24152;DHT22;12311;50.866;4.332;2022-08-24T02:54:34;21.20;99.90
24152;DHT22;12311;50.866;4.332;2022-08-24T02:57:00;21.10;99.90
24152;DHT22;12311;50.866;4.332;2022-08-24T02:59:26;21.20;99.90
24152;DHT22;12311;50.866;4.332;2022-08-24T03:01:52;21.20;99.90
24152;DHT22;12311;50.866;4.332;2022-08-24T03:04:19;21.20;99.90
24152;DHT22;12311;50.866;4.332;2022-08-24T03:06:45;21.20;99.90
24152;DHT22;12311;50.866;4.332;2022-08-24T03:09:11;21.20;99.90
24152;DHT22;12311;50.866;4.332;2022-08-24T03:11:36;21.10;99.90
24152;DHT22;12311;50.866;4.332;2022-08-24T03:14:02;21.10;99.90
24152;DHT22;12311;50.866;4.332;2022-08-24T03:16:29;21.00;99.90
24152;DHT22;12311;50.866;4.332;2022-08-24T03:18:56;21.00;99.90
24152;DHT22;12311;50.866;4.332;2022-08-24T03:21:21;21.00;99.90
24152;DHT22;12311;50.866;4.332;2022-08-24T03:23:47;21.00;99.90
24152;DHT22;12311;50.866;4.332;2022-08-24T03:26:13;20.90;99.90
24152;DHT22;12311;50.866;4.332;2022-08-24T03:28:39;20.90;99.90
24152;DHT22;12311;50.866;4.332;2022-08-24T03:31:05;21.00;99.90
24152;DHT22;12311;50.866;4.332;2022-08-24T03:33:30;20.90;99.90
24152;DHT22;12311;50.866;4.332;2022-08-24T03:35:56;21.00;99.90
24152;DHT22;12311;50.866;4.332;2022-08-24T03:38:22;21.00;99.90
24152;DHT22;12311;50.866;4.332;2022-08-24T03:40:48;21.00;99.90
24152;DHT22;12311;50.866;4.332;2022-08-24T03:43:14;21.10;99.90
24152;DHT22;12311;50.866;4.332;2022-08-24T03:45:59;21.10;99.90
24152;DHT22;12311;50.866;4.332;2022-08-24T03:48:26;20.90;99.90
24152;DHT22;12311;50.866;4.332;2022-08-24T03:50:53;20.90;99.90
24152;DHT22;12311;50.866;4.332;2022-08-24T03:53:18;20.90;99.90
24152;DHT22;12311;50.866;4.332;2022-08-24T03:55:44;20.90;99.90
24152;DHT22;12311;50.866;4.332;2022-08-24T03:58:10;20.90;99.90
24152;DHT22;12311;50.866;4.332;2022-08-24T04:00:35;20.90;99.90
24152;DHT22;12311;50.866;4.332;2022-08-24T04:03:02;20.90;99.90
24152;DHT22;12311;50.866;4.332;2022-08-24T04:05:27;20.90;99.90
24152;DHT22;12311;50.866;4.332;2022-08-24T04:07:55;20.80;99.90
24152;DHT22;12311;50.866;4.332;2022-08-24T04:10:21;20.80;99.90
24152;DHT22;12311;50.866;4.332;2022-08-24T04:12:47;20.80;99.90
24152;DHT22;12311;50.866;4.332;2022-08-24T04:15:13;20.80;99.90
24152;DHT22;12311;50.866;4.332;2022-08-24T04:17:39;20.80;99.90
24152;DHT22;12311;50.866;4.332;2022-08-24T04:20:05;20.80;99.90
24152;DHT22;12311;50.866;4.332;2022-08-24T04:22:31;20.80;99.90
24152;DHT22;12311;50.866;4.332;2022-08-24T04:24:58;20.70;99.90
24152;DHT22;12311;50.866;4.332;2022-08-24T04:27:24;20.70;99.90
24152;DHT22;12311;50.866;4.332;2022-08-24T04:29:50;20.70;99.90
24152;DHT22;12311;50.866;4.332;2022-08-24T04:32:16;20.70;99.90
24152;DHT22;12311;50.866;4.332;2022-08-24T04:34:42;20.70;99.90
24152;DHT22;12311;50.866;4.332;2022-08-24T04:37:09;20.60;99.90
24152;DHT22;12311;50.866;4.332;2022-08-24T04:39:34;20.60;99.90
24152;DHT22;12311;50.866;4.332;2022-08-24T04:42:00;20.60;99.90
24152;DHT22;12311;50.866;4.332;2022-08-24T04:44:26;20.60;99.90
24152;DHT22;12311;50.866;4.332;2022-08-24T04:46:52;20.60;99.90
24152;DHT22;12311;50.866;4.332;2022-08-24T04:49:17;20.70;99.90
24152;DHT22;12311;50.866;4.332;2022-08-24T04:51:43;20.70;99.90
24152;DHT22;12311;50.866;4.332;2022-08-24T04:54:09;20.70;99.90
24152;DHT22;12311;50.866;4.332;2022-08-24T04:56:35;20.80;99.90
24152;DHT22;12311;50.866;4.332;2022-08-24T04:59:01;20.70;99.90
24152;DHT22;12311;50.866;4.332;2022-08-24T05:01:28;20.70;99.90
24152;DHT22;12311;50.866;4.332;2022-08-24T05:03:55;20.80;99.90
24152;DHT22;12311;50.866;4.332;2022-08-24T05:06:23;20.80;99.90
24152;DHT22;12311;50.866;4.332;2022-08-24T05:08:49;20.90;99.90
24152;DHT22;12311;50.866;4.332;2022-08-24T05:11:16;20.90;99.90
24152;DHT22;12311;50.866;4.332;2022-08-24T05:13:43;20.90;99.90
24152;DHT22;12311;50.866;4.332;2022-08-24T05:16:11;20.90;99.90
24152;DHT22;12311;50.866;4.332;2022-08-24T05:18:38;20.90;99.90
24152;DHT22;12311;50.866;4.332;2022-08-24T05:21:07;21.00;99.90
24152;DHT22;12311;50.866;4.332;2022-08-24T05:23:35;21.00;99.90
24152;DHT22;12311;50.866;4.332;2022-08-24T05:26:10;21.00;99.90
24152;DHT22;12311;50.866;4.332;2022-08-24T05:28:36;21.00;99.90
24152;DHT22;12311;50.866;4.332;2022-08-24T05:31:12;21.00;99.90
24152;DHT22;12311;50.866;4.332;2022-08-24T05:33:38;21.10;99.90
24152;DHT22;12311;50.866;4.332;2022-08-24T05:36:05;21.10;99.90
24152;DHT22;12311;50.866;4.332;2022-08-24T05:38:31;21.10;99.90
24152;DHT22;12311;50.866;4.332;2022-08-24T05:41:02;21.20;99.90
24152;DHT22;12311;50.866;4.332;2022-08-24T05:43:28;21.30;99.90
24152;DHT22;12311;50.866;4.332;2022-08-24T05:45:54;21.30;99.90
24152;DHT22;12311;50.866;4.332;2022-08-24T05:48:20;21.40;99.90
24152;DHT22;12311;50.866;4.332;2022-08-24T05:50:51;21.50;99.90
24152;DHT22;12311;50.866;4.332;2022-08-24T05:53:17;21.70;99.90
24152;DHT22;12311;50.866;4.332;2022-08-24T05:55:43;21.80;99.90
24152;DHT22;12311;50.866;4.332;2022-08-24T05:58:08;21.90;99.90
24152;DHT22;12311;50.866;4.332;2022-08-24T06:00:36;22.00;99.90
24152;DHT22;12311;50.866;4.332;2022-08-24T06:03:02;22.20;99.90
24152;DHT22;12311;50.866;4.332;2022-08-24T06:05:28;22.30;99.90
24152;DHT22;12311;50.866;4.332;2022-08-24T06:07:54;22.40;99.90
24152;DHT22;12311;50.866;4.332;2022-08-24T06:10:20;22.40;99.90
24152;DHT22;12311;50.866;4.332;2022-08-24T06:12:46;22.50;99.90
24152;DHT22;12311;50.866;4.332;2022-08-24T06:15:12;22.60;99.90
24152;DHT22;12311;50.866;4.332;2022-08-24T06:17:38;22.60;99.90
24152;DHT22;12311;50.866;4.332;2022-08-24T06:20:04;22.70;99.90
24152;DHT22;12311;50.866;4.332;2022-08-24T06:22:32;22.80;99.90
24152;DHT22;12311;50.866;4.332;2022-08-24T06:24:57;22.90;99.90
24152;DHT22;12311;50.866;4.332;2022-08-24T06:27:42;23.10;99.90
24152;DHT22;12311;50.866;4.332;2022-08-24T06:30:09;23.20;99.90
24152;DHT22;12311;50.866;4.332;2022-08-24T06:32:35;23.40;99.90
24152;DHT22;12311;50.866;4.332;2022-08-24T06:35:02;23.40;99.90
24152;DHT22;12311;50.866;4.332;2022-08-24T06:37:27;23.50;99.90
24152;DHT22;12311;50.866;4.332;2022-08-24T06:39:54;23.60;99.90
24152;DHT22;12311;50.866;4.332;2022-08-24T06:42:20;23.70;99.90
24152;DHT22;12311;50.866;4.332;2022-08-24T06:44:45;23.80;99.90
24152;DHT22;12311;50.866;4.332;2022-08-24T06:47:11;23.90;99.90
24152;DHT22;12311;50.866;4.332;2022-08-24T06:49:38;24.00;99.90
24152;DHT22;12311;50.866;4.332;2022-08-24T06:52:04;24.10;99.90
24152;DHT22;12311;50.866;4.332;2022-08-24T06:54:31;24.20;99.90
24152;DHT22;12311;50.866;4.332;2022-08-24T06:56:57;24.30;99.90
24152;DHT22;12311;50.866;4.332;2022-08-24T06:59:24;24.40;99.90
24152;DHT22;12311;50.866;4.332;2022-08-24T07:01:53;24.50;99.90
24152;DHT22;12311;50.866;4.332;2022-08-24T07:04:21;24.60;99.90
24152;DHT22;12311;50.866;4.332;2022-08-24T07:06:47;24.70;99.90
24152;DHT22;12311;50.866;4.332;2022-08-24T07:09:12;24.80;99.90
24152;DHT22;12311;50.866;4.332;2022-08-24T07:11:38;24.80;99.90
24152;DHT22;12311;50.866;4.332;2022-08-24T07:14:04;24.90;99.90
24152;DHT22;12311;50.866;4.332;2022-08-24T07:16:31;25.00;99.90
24152;DHT22;12311;50.866;4.332;2022-08-24T07:18:56;25.10;99.90
24152;DHT22;12311;50.866;4.332;2022-08-24T07:21:22;25.20;99.90
24152;DHT22;12311;50.866;4.332;2022-08-24T07:23:48;25.20;99.90
24152;DHT22;12311;50.866;4.332;2022-08-24T07:26:18;25.30;99.90
24152;DHT22;12311;50.866;4.332;2022-08-24T07:28:46;25.30;99.90
24152;DHT22;12311;50.866;4.332;2022-08-24T07:31:12;25.40;99.90
24152;DHT22;12311;50.866;4.332;2022-08-24T07:33:38;25.30;99.90
24152;DHT22;12311;50.866;4.332;2022-08-24T07:36:04;25.50;99.90
24152;DHT22;12311;50.866;4.332;2022-08-24T07:38:30;25.70;99.90
24152;DHT22;12311;50.866;4.332;2022-08-24T07:40:58;25.90;99.90
24152;DHT22;12311;50.866;4.332;2022-08-24T07:43:24;25.90;99.90
24152;DHT22;12311;50.866;4.332;2022-08-24T07:45:50;26.00;99.90
24152;DHT22;12311;50.866;4.332;2022-08-24T07:48:16;26.10;99.90
24152;DHT22;12311;50.866;4.332;2022-08-24T07:50:42;26.30;99.90
24152;DHT22;12311;50.866;4.332;2022-08-24T07:53:08;26.40;99.90
24152;DHT22;12311;50.866;4.332;2022-08-24T07:55:33;26.30;99.90
24152;DHT22;12311;50.866;4.332;2022-08-24T07:58:00;26.30;99.90
24152;DHT22;12311;50.866;4.332;2022-08-24T08:00:26;26.40;99.90
24152;DHT22;12311;50.866;4.332;2022-08-24T08:02:52;26.50;99.90
24152;DHT22;12311;50.866;4.332;2022-08-24T08:05:21;26.60;99.90
24152;DHT22;12311;50.866;4.332;2022-08-24T08:07:47;26.70;99.90
24152;DHT22;12311;50.866;4.332;2022-08-24T08:10:13;26.70;99.90
24152;DHT22;12311;50.866;4.332;2022-08-24T08:12:39;26.80;99.90
24152;DHT22;12311;50.866;4.332;2022-08-24T08:15:06;26.80;99.90
24152;DHT22;12311;50.866;4.332;2022-08-24T08:17:34;27.00;99.90
24152;DHT22;12311;50.866;4.332;2022-08-24T08:20:01;27.10;99.90
24152;DHT22;12311;50.866;4.332;2022-08-24T08:22:26;27.10;99.90
24152;DHT22;12311;50.866;4.332;2022-08-24T08:25:11;27.20;99.90
24152;DHT22;12311;50.866;4.332;2022-08-24T08:27:37;27.20;99.90
24152;DHT22;12311;50.866;4.332;2022-08-24T08:30:05;27.40;99.90
24152;DHT22;12311;50.866;4.332;2022-08-24T08:32:31;27.60;99.90
24152;DHT22;12311;50.866;4.332;2022-08-24T08:34:58;27.50;99.90
24152;DHT22;12311;50.866;4.332;2022-08-24T08:37:24;27.70;99.90
24152;DHT22;12311;50.866;4.332;2022-08-24T08:39:50;27.70;99.90
24152;DHT22;12311;50.866;4.332;2022-08-24T08:42:38;27.80;99.90
24152;DHT22;12311;50.866;4.332;2022-08-24T08:45:26;27.80;99.90
24152;DHT22;12311;50.866;4.332;2022-08-24T08:48:25;27.70;99.90
24152;DHT22;12311;50.866;4.332;2022-08-24T08:51:12;27.70;99.90
24152;DHT22;12311;50.866;4.332;2022-08-24T08:59:53;27.70;99.90
24152;DHT22;12311;50.866;4.332;2022-08-24T09:09:04;27.70;99.90
24152;DHT22;12311;50.866;4.332;2022-08-24T09:22:18;27.70;99.90
24152;DHT22;12311;50.866;4.332;2022-08-24T09:30:25;28.10;99.90
24152;DHT22;12311;50.866;4.332;2022-08-24T09:44:39;29.60;99.90
24152;DHT22;12311;50.866;4.332;2022-08-24T09:52:34;30.70;99.90
24152;DHT22;12311;50.866;4.332;2022-08-24T09:58:39;32.00;99.90
24152;DHT22;12311;50.866;4.332;2022-08-24T10:01:29;31.90;99.90
24152;DHT22;12311;50.866;4.332;2022-08-24T10:06:54;31.60;99.90
24152;DHT22;12311;50.866;4.332;2022-08-24T10:09:52;31.40;99.90
24152;DHT22;12311;50.866;4.332;2022-08-24T10:20:25;31.10;99.90
24152;DHT22;12311;50.866;4.332;2022-08-24T10:22:57;30.90;99.90
24152;DHT22;12311;50.866;4.332;2022-08-24T10:25:39;31.00;99.90
24152;DHT22;12311;50.866;4.332;2022-08-24T10:28:32;31.10;99.90
24152;DHT22;12311;50.866;4.332;2022-08-24T10:31:08;31.10;99.90
24152;DHT22;12311;50.866;4.332;2022-08-24T10:39:32;31.90;99.90
24152;DHT22;12311;50.866;4.332;2022-08-24T10:45:55;32.00;99.90
24152;DHT22;12311;50.866;4.332;2022-08-24T10:53:49;32.00;99.90
24152;DHT22;12311;50.866;4.332;2022-08-24T10:59:33;32.40;99.90
24152;DHT22;12311;50.866;4.332;2022-08-24T11:02:10;32.30;99.90
24152;DHT22;12311;50.866;4.332;2022-08-24T11:04:37;32.50;99.90
24152;DHT22;12311;50.866;4.332;2022-08-24T11:07:18;32.70;99.90
24152;DHT22;12311;50.866;4.332;2022-08-24T11:10:06;32.70;99.90
24152;DHT22;12311;50.866;4.332;2022-08-24T11:12:39;32.90;99.90
24152;DHT22;12311;50.866;4.332;2022-08-24T11:15:20;33.00;99.90
24152;DHT22;12311;50.866;4.332;2022-08-24T11:18:00;33.20;99.90
24152;DHT22;12311;50.866;4.332;2022-08-24T11:20:33;33.30;99.90
24152;DHT22;12311;50.866;4.332;2022-08-24T11:23:24;33.40;99.90
24152;DHT22;12311;50.866;4.332;2022-08-24T11:26:11;33.60;99.90
24152;DHT22;12311;50.866;4.332;2022-08-24T11:28:51;33.60;98.30
24152;DHT22;12311;50.866;4.332;2022-08-24T11:31:31;33.90;98.40
24152;DHT22;12311;50.866;4.332;2022-08-24T11:34:04;34.10;97.60
24152;DHT22;12311;50.866;4.332;2022-08-24T11:36:32;33.90;97.60
24152;DHT22;12311;50.866;4.332;2022-08-24T11:39:19;34.10;97.50
24152;DHT22;12311;50.866;4.332;2022-08-24T11:47:01;34.80;94.10
24152;DHT22;12311;50.866;4.332;2022-08-24T11:52:40;35.20;93.80
24152;DHT22;12311;50.866;4.332;2022-08-24T11:55:21;35.60;92.80
24152;DHT22;12311;50.866;4.332;2022-08-24T11:58:05;35.90;91.40
24152;DHT22;12311;50.866;4.332;2022-08-24T12:00:49;36.00;90.30
24152;DHT22;12311;50.866;4.332;2022-08-24T12:06:17;36.40;87.50
24152;DHT22;12311;50.866;4.332;2022-08-24T12:09:08;36.80;84.70
24152;DHT22;12311;50.866;4.332;2022-08-24T12:14:36;37.60;79.40
24152;DHT22;12311;50.866;4.332;2022-08-24T12:19:58;37.60;74.50
24152;DHT22;12311;50.866;4.332;2022-08-24T12:22:26;37.90;73.90
24152;DHT22;12311;50.866;4.332;2022-08-24T12:24:55;38.10;72.40
24152;DHT22;12311;50.866;4.332;2022-08-24T12:27:26;38.60;72.90
24152;DHT22;12311;50.866;4.332;2022-08-24T12:30:05;39.40;70.50
24152;DHT22;12311;50.866;4.332;2022-08-24T12:32:47;40.00;67.40
24152;DHT22;12311;50.866;4.332;2022-08-24T12:35:34;40.10;64.90
24152;DHT22;12311;50.866;4.332;2022-08-24T12:40:38;39.90;61.40
24152;DHT22;12311;50.866;4.332;2022-08-24T12:43:32;40.20;61.40
24152;DHT22;12311;50.866;4.332;2022-08-24T12:45:58;40.60;59.60
24152;DHT22;12311;50.866;4.332;2022-08-24T12:48:44;40.50;58.80
24152;DHT22;12311;50.866;4.332;2022-08-24T12:54:38;41.60;57.10
24152;DHT22;12311;50.866;4.332;2022-08-24T12:59:56;42.60;54.40
24152;DHT22;12311;50.866;4.332;2022-08-24T13:17:55;44.70;49.40
24152;DHT22;12311;50.866;4.332;2022-08-24T13:39:24;43.80;45.50
24152;DHT22;12311;50.866;4.332;2022-08-24T13:44:57;43.90;45.60
24152;DHT22;12311;50.866;4.332;2022-08-24T13:59:35;45.70;43.80
24152;DHT22;12311;50.866;4.332;2022-08-24T14:07:20;44.20;43.20
24152;DHT22;12311;50.866;4.332;2022-08-24T14:15:24;43.90;43.30
24152;DHT22;12311;50.866;4.332;2022-08-24T14:18:13;44.00;43.60
24152;DHT22;12311;50.866;4.332;2022-08-24T14:24:06;46.00;43.00
24152;DHT22;12311;50.866;4.332;2022-08-24T14:31:40;44.80;42.40
24152;DHT22;12311;50.866;4.332;2022-08-24T14:34:16;43.70;43.20
24152;DHT22;12311;50.866;4.332;2022-08-24T14:36:56;42.70;44.50
24152;DHT22;12311;50.866;4.332;2022-08-24T14:39:38;41.80;45.80
24152;DHT22;12311;50.866;4.332;2022-08-24T14:42:15;40.80;47.30
24152;DHT22;12311;50.866;4.332;2022-08-24T14:45:07;39.90;47.10
24152;DHT22;12311;50.866;4.332;2022-08-24T14:48:04;38.60;47.80
24152;DHT22;12311;50.866;4.332;2022-08-24T14:50:39;38.00;49.40
24152;DHT22;12311;50.866;4.332;2022-08-24T14:59:12;36.80;51.70
24152;DHT22;12311;50.866;4.332;2022-08-24T15:04:23;35.80;53.10
24152;DHT22;12311;50.866;4.332;2022-08-24T15:06:54;35.50;53.90
24152;DHT22;12311;50.866;4.332;2022-08-24T15:09:26;35.20;54.90
24152;DHT22;12311;50.866;4.332;2022-08-24T15:11:58;35.00;55.70
24152;DHT22;12311;50.866;4.332;2022-08-24T15:14:45;34.90;55.80
24152;DHT22;12311;50.866;4.332;2022-08-24T15:17:18;34.60;56.30
24152;DHT22;12311;50.866;4.332;2022-08-24T15:19:56;34.40;56.70
24152;DHT22;12311;50.866;4.332;2022-08-24T15:22:44;34.40;56.70
24152;DHT22;12311;50.866;4.332;2022-08-24T15:27:55;34.20;57.00
24152;DHT22;12311;50.866;4.332;2022-08-24T15:30:33;34.10;57.60
24152;DHT22;12311;50.866;4.332;2022-08-24T15:33:15;34.10;57.40
24152;DHT22;12311;50.866;4.332;2022-08-24T15:35:44;33.80;58.10
24152;DHT22;12311;50.866;4.332;2022-08-24T15:41:17;33.30;60.20
24152;DHT22;12311;50.866;4.332;2022-08-24T15:43:48;33.10;59.80
24152;DHT22;12311;50.866;4.332;2022-08-24T15:46:22;33.00;60.30
24152;DHT22;12311;50.866;4.332;2022-08-24T15:48:51;32.90;60.90
24152;DHT22;12311;50.866;4.332;2022-08-24T15:57:31;33.20;61.60
24152;DHT22;12311;50.866;4.332;2022-08-24T16:00:15;33.10;61.60
24152;DHT22;12311;50.866;4.332;2022-08-24T16:05:44;33.70;62.50
24152;DHT22;12311;50.866;4.332;2022-08-24T16:08:11;33.80;60.90
24152;DHT22;12311;50.866;4.332;2022-08-24T16:10:47;34.10;60.60
24152;DHT22;12311;50.866;4.332;2022-08-24T16:18:14;34.40;59.70
24152;DHT22;12311;50.866;4.332;2022-08-24T16:20:40;34.30;59.90
24152;DHT22;12311;50.866;4.332;2022-08-24T16:23:11;34.20;59.90
24152;DHT22;12311;50.866;4.332;2022-08-24T16:25:38;34.30;59.90
24152;DHT22;12311;50.866;4.332;2022-08-24T16:33:08;34.30;60.30
24152;DHT22;12311;50.866;4.332;2022-08-24T16:35:34;34.20;60.80
24152;DHT22;12311;50.866;4.332;2022-08-24T16:38:00;34.00;61.50
24152;DHT22;12311;50.866;4.332;2022-08-24T16:40:26;33.90;62.00
24152;DHT22;12311;50.866;4.332;2022-08-24T16:42:53;33.80;62.10
24152;DHT22;12311;50.866;4.332;2022-08-24T16:45:21;33.80;62.10
24152;DHT22;12311;50.866;4.332;2022-08-24T16:47:47;33.70;61.80
24152;DHT22;12311;50.866;4.332;2022-08-24T16:50:16;33.80;61.00
24152;DHT22;12311;50.866;4.332;2022-08-24T16:52:42;33.70;61.00
24152;DHT22;12311;50.866;4.332;2022-08-24T16:55:08;33.80;60.80
24152;DHT22;12311;50.866;4.332;2022-08-24T16:57:34;33.80;61.00
24152;DHT22;12311;50.866;4.332;2022-08-24T17:00:07;33.80;61.00
24152;DHT22;12311;50.866;4.332;2022-08-24T17:02:34;33.70;61.00
24152;DHT22;12311;50.866;4.332;2022-08-24T17:04:59;33.60;61.30
24152;DHT22;12311;50.866;4.332;2022-08-24T17:07:28;33.70;61.60
24152;DHT22;12311;50.866;4.332;2022-08-24T17:09:55;33.80;61.40
24152;DHT22;12311;50.866;4.332;2022-08-24T17:12:21;33.80;61.10
24152;DHT22;12311;50.866;4.332;2022-08-24T17:14:47;33.80;60.90
24152;DHT22;12311;50.866;4.332;2022-08-24T17:17:17;33.80;60.80
24152;DHT22;12311;50.866;4.332;2022-08-24T17:19:47;33.70;61.10
24152;DHT22;12311;50.866;4.332;2022-08-24T17:22:12;33.50;61.50
24152;DHT22;12311;50.866;4.332;2022-08-24T17:24:38;33.40;61.60
24152;DHT22;12311;50.866;4.332;2022-08-24T17:27:04;33.30;62.00
24152;DHT22;12311;50.866;4.332;2022-08-24T17:29:30;33.30;62.00
24152;DHT22;12311;50.866;4.332;2022-08-24T17:31:56;33.20;62.80
24152;DHT22;12311;50.866;4.332;2022-08-24T17:34:24;33.10;62.60
24152;DHT22;12311;50.866;4.332;2022-08-24T17:36:53;32.90;63.30
24152;DHT22;12311;50.866;4.332;2022-08-24T17:39:20;32.70;63.90
24152;DHT22;12311;50.866;4.332;2022-08-24T17:41:49;32.50;66.60
24152;DHT22;12311;50.866;4.332;2022-08-24T17:44:19;32.30;68.50
24152;DHT22;12311;50.866;4.332;2022-08-24T17:46:47;32.10;70.10
24152;DHT22;12311;50.866;4.332;2022-08-24T17:49:15;32.00;71.40
24152;DHT22;12311;50.866;4.332;2022-08-24T17:51:41;32.00;72.50
24152;DHT22;12311;50.866;4.332;2022-08-24T17:54:07;31.80;73.90
24152;DHT22;12311;50.866;4.332;2022-08-24T17:56:33;31.70;74.60
24152;DHT22;12311;50.866;4.332;2022-08-24T17:59:07;31.70;75.40
24152;DHT22;12311;50.866;4.332;2022-08-24T18:01:58;31.50;76.30
24152;DHT22;12311;50.866;4.332;2022-08-24T18:04:26;31.50;76.80
24152;DHT22;12311;50.866;4.332;2022-08-24T18:06:54;31.40;77.80
24152;DHT22;12311;50.866;4.332;2022-08-24T18:12:01;31.30;78.90
24152;DHT22;12311;50.866;4.332;2022-08-24T18:14:28;31.30;79.50
24152;DHT22;12311;50.866;4.332;2022-08-24T18:16:56;31.30;79.80
24152;DHT22;12311;50.866;4.332;2022-08-24T18:19:23;31.30;79.90
24152;DHT22;12311;50.866;4.332;2022-08-24T18:21:52;31.20;80.30
24152;DHT22;12311;50.866;4.332;2022-08-24T18:24:18;31.00;81.10
24152;DHT22;12311;50.866;4.332;2022-08-24T18:26:45;30.90;82.20
24152;DHT22;12311;50.866;4.332;2022-08-24T18:29:15;30.70;83.10
24152;DHT22;12311;50.866;4.332;2022-08-24T18:31:41;30.60;84.00
24152;DHT22;12311;50.866;4.332;2022-08-24T18:34:09;30.50;84.20
24152;DHT22;12311;50.866;4.332;2022-08-24T18:36:35;30.40;85.20
24152;DHT22;12311;50.866;4.332;2022-08-24T18:39:01;30.30;86.30
24152;DHT22;12311;50.866;4.332;2022-08-24T18:41:33;30.20;86.90
24152;DHT22;12311;50.866;4.332;2022-08-24T18:44:01;30.10;87.80
24152;DHT22;12311;50.866;4.332;2022-08-24T18:46:29;29.90;89.10
24152;DHT22;12311;50.866;4.332;2022-08-24T18:48:56;29.80;90.10
24152;DHT22;12311;50.866;4.332;2022-08-24T18:51:21;29.70;90.60
24152;DHT22;12311;50.866;4.332;2022-08-24T18:53:49;29.70;90.90
24152;DHT22;12311;50.866;4.332;2022-08-24T18:56:15;29.60;91.40
24152;DHT22;12311;50.866;4.332;2022-08-24T18:58:41;29.40;92.00
24152;DHT22;12311;50.866;4.332;2022-08-24T19:01:07;29.30;92.50
24152;DHT22;12311;50.866;4.332;2022-08-24T19:03:33;29.20;93.10
24152;DHT22;12311;50.866;4.332;2022-08-24T19:05:58;29.10;93.40
24152;DHT22;12311;50.866;4.332;2022-08-24T19:08:25;29.00;93.90
24152;DHT22;12311;50.866;4.332;2022-08-24T19:10:51;29.00;94.60
24152;DHT22;12311;50.866;4.332;2022-08-24T19:13:17;28.90;95.10
24152;DHT22;12311;50.866;4.332;2022-08-24T19:15:44;28.80;95.50